sensor_id;sensor_type;location;lat;lon;timestamp;P1;durP1;ratioP1;P2;durP2;ratioP2
73650;SDS011;61944;52.538;6.108;2022-12-18T00:02:12;71.05;;;30.02;;
73650;SDS011;61944;52.538;6.108;2022-12-18T00:04:37;77.72;;;30.52;;
73650;SDS011;61944;52.538;6.108;2022-12-18T00:07:03;83.90;;;32.10;;
73650;SDS011;61944;52.538;6.108;2022-12-18T00:09:28;79.00;;;32.17;;
73650;SDS011;61944;52.538;6.108;2022-12-18T00:11:54;69.78;;;29.63;;
73650;SDS011;61944;52.538;6.108;2022-12-18T00:14:19;80.22;;;31.08;;
73650;SDS011;61944;52.538;6.108;2022-12-18T00:16:45;84.05;;;33.10;;
73650;SDS011;61944;52.538;6.108;2022-12-18T00:19:11;81.13;;;31.63;;
73650;SDS011;61944;52.538;6.108;2022-12-18T00:21:41;72.63;;;31.20;;
73650;SDS011;61944;52.538;6.108;2022-12-18T00:24:07;74.53;;;33.25;;
73650;SDS011;61944;52.538;6.108;2022-12-18T00:26:33;78.88;;;30.00;;
73650;SDS011;61944;52.538;6.108;2022-12-18T00:29:10;91.35;;;34.65;;
73650;SDS011;61944;52.538;6.108;2022-12-18T00:31:38;83.90;;;33.40;;
73650;SDS011;61944;52.538;6.108;2022-12-18T00:34:04;86.32;;;34.42;;
73650;SDS011;61944;52.538;6.108;2022-12-18T00:36:30;79.80;;;32.85;;
73650;SDS011;61944;52.538;6.108;2022-12-18T00:38:58;84.50;;;33.47;;
73650;SDS011;61944;52.538;6.108;2022-12-18T00:41:25;73.32;;;32.63;;
73650;SDS011;61944;52.538;6.108;2022-12-18T00:44:10;85.22;;;33.17;;
73650;SDS011;61944;52.538;6.108;2022-12-18T00:46:37;84.28;;;33.28;;
73650;SDS011;61944;52.538;6.108;2022-12-18T00:49:03;79.28;;;32.78;;
73650;SDS011;61944;52.538;6.108;2022-12-18T00:51:29;80.47;;;32.67;;
73650;SDS011;61944;52.538;6.108;2022-12-18T00:53:55;84.93;;;32.55;;
73650;SDS011;61944;52.538;6.108;2022-12-18T00:56:23;70.70;;;30.90;;
73650;SDS011;61944;52.538;6.108;2022-12-18T00:58:49;86.45;;;33.80;;
73650;SDS011;61944;52.538;6.108;2022-12-18T01:01:15;85.80;;;32.75;;
73650;SDS011;61944;52.538;6.108;2022-12-18T01:03:41;76.50;;;32.28;;
73650;SDS011;61944;52.538;6.108;2022-12-18T01:06:07;85.10;;;33.35;;
73650;SDS011;61944;52.538;6.108;2022-12-18T01:08:35;78.97;;;30.85;;
73650;SDS011;61944;52.538;6.108;2022-12-18T01:11:01;79.30;;;31.83;;
73650;SDS011;61944;52.538;6.108;2022-12-18T01:13:32;80.97;;;33.28;;
73650;SDS011;61944;52.538;6.108;2022-12-18T01:15:57;81.85;;;30.77;;
73650;SDS011;61944;52.538;6.108;2022-12-18T01:18:22;84.90;;;31.10;;
73650;SDS011;61944;52.538;6.108;2022-12-18T01:20:48;91.05;;;34.30;;
73650;SDS011;61944;52.538;6.108;2022-12-18T01:23:13;75.95;;;32.90;;
73650;SDS011;61944;52.538;6.108;2022-12-18T01:25:38;82.10;;;32.10;;
73650;SDS011;61944;52.538;6.108;2022-12-18T01:28:04;90.22;;;34.33;;
73650;SDS011;61944;52.538;6.108;2022-12-18T01:30:30;78.43;;;32.22;;
73650;SDS011;61944;52.538;6.108;2022-12-18T01:32:55;78.03;;;31.13;;
73650;SDS011;61944;52.538;6.108;2022-12-18T01:35:20;78.75;;;31.25;;
73650;SDS011;61944;52.538;6.108;2022-12-18T01:37:46;85.47;;;32.78;;
73650;SDS011;61944;52.538;6.108;2022-12-18T01:40:11;86.30;;;32.88;;
73650;SDS011;61944;52.538;6.108;2022-12-18T01:42:37;88.10;;;34.20;;
73650;SDS011;61944;52.538;6.108;2022-12-18T01:47:50;81.78;;;33.58;;
73650;SDS011;61944;52.538;6.108;2022-12-18T01:53:11;89.22;;;33.30;;
73650;SDS011;61944;52.538;6.108;2022-12-18T01:55:50;83.88;;;34.83;;
73650;SDS011;61944;52.538;6.108;2022-12-18T01:58:18;86.38;;;35.78;;
73650;SDS011;61944;52.538;6.108;2022-12-18T02:00:48;77.40;;;32.05;;
73650;SDS011;61944;52.538;6.108;2022-12-18T02:03:13;67.25;;;28.42;;
73650;SDS011;61944;52.538;6.108;2022-12-18T02:10:57;62.75;;;28.27;;
73650;SDS011;61944;52.538;6.108;2022-12-18T02:13:41;70.93;;;29.75;;
73650;SDS011;61944;52.538;6.108;2022-12-18T02:19:00;62.08;;;26.30;;
73650;SDS011;61944;52.538;6.108;2022-12-18T02:21:50;72.50;;;27.33;;
73650;SDS011;61944;52.538;6.108;2022-12-18T02:26:55;63.88;;;25.15;;
73650;SDS011;61944;52.538;6.108;2022-12-18T02:29:28;67.50;;;29.30;;
73650;SDS011;61944;52.538;6.108;2022-12-18T02:32:00;60.17;;;27.23;;
73650;SDS011;61944;52.538;6.108;2022-12-18T02:34:30;68.63;;;27.35;;
73650;SDS011;61944;52.538;6.108;2022-12-18T02:36:58;57.17;;;25.17;;
73650;SDS011;61944;52.538;6.108;2022-12-18T02:39:28;63.55;;;28.90;;
73650;SDS011;61944;52.538;6.108;2022-12-18T02:41:55;54.67;;;25.42;;
73650;SDS011;61944;52.538;6.108;2022-12-18T02:44:22;52.95;;;26.00;;
73650;SDS011;61944;52.538;6.108;2022-12-18T02:46:51;65.72;;;26.77;;
73650;SDS011;61944;52.538;6.108;2022-12-18T02:51:53;56.47;;;24.25;;
73650;SDS011;61944;52.538;6.108;2022-12-18T02:54:41;53.28;;;23.85;;
73650;SDS011;61944;52.538;6.108;2022-12-18T02:57:23;57.88;;;23.98;;
73650;SDS011;61944;52.538;6.108;2022-12-18T03:00:00;58.75;;;24.80;;
73650;SDS011;61944;52.538;6.108;2022-12-18T03:05:07;48.25;;;23.73;;
73650;SDS011;61944;52.538;6.108;2022-12-18T03:10:27;67.82;;;28.38;;
73650;SDS011;61944;52.538;6.108;2022-12-18T03:13:03;63.08;;;26.35;;
73650;SDS011;61944;52.538;6.108;2022-12-18T03:15:33;61.13;;;25.90;;
73650;SDS011;61944;52.538;6.108;2022-12-18T03:18:04;52.60;;;23.30;;
73650;SDS011;61944;52.538;6.108;2022-12-18T03:20:38;54.30;;;23.75;;
73650;SDS011;61944;52.538;6.108;2022-12-18T03:23:09;49.88;;;23.65;;
73650;SDS011;61944;52.538;6.108;2022-12-18T03:25:39;53.17;;;23.52;;
73650;SDS011;61944;52.538;6.108;2022-12-18T03:28:08;57.45;;;23.15;;
73650;SDS011;61944;52.538;6.108;2022-12-18T03:30:38;55.78;;;24.45;;
73650;SDS011;61944;52.538;6.108;2022-12-18T03:36:07;58.85;;;23.20;;
73650;SDS011;61944;52.538;6.108;2022-12-18T03:38:33;49.13;;;22.88;;
73650;SDS011;61944;52.538;6.108;2022-12-18T03:40:59;57.35;;;24.92;;
73650;SDS011;61944;52.538;6.108;2022-12-18T03:43:34;56.85;;;24.20;;
73650;SDS011;61944;52.538;6.108;2022-12-18T03:46:12;52.08;;;24.15;;
73650;SDS011;61944;52.538;6.108;2022-12-18T03:48:46;56.33;;;24.15;;
73650;SDS011;61944;52.538;6.108;2022-12-18T03:51:18;57.45;;;23.70;;
73650;SDS011;61944;52.538;6.108;2022-12-18T03:54:01;57.58;;;24.02;;
73650;SDS011;61944;52.538;6.108;2022-12-18T03:56:29;55.85;;;23.95;;
73650;SDS011;61944;52.538;6.108;2022-12-18T03:58:58;52.92;;;23.60;;
73650;SDS011;61944;52.538;6.108;2022-12-18T04:01:28;55.70;;;24.05;;
73650;SDS011;61944;52.538;6.108;2022-12-18T04:03:58;61.40;;;23.80;;
73650;SDS011;61944;52.538;6.108;2022-12-18T04:06:26;55.83;;;22.35;;
73650;SDS011;61944;52.538;6.108;2022-12-18T04:08:53;60.08;;;24.67;;
73650;SDS011;61944;52.538;6.108;2022-12-18T04:11:19;48.78;;;23.05;;
73650;SDS011;61944;52.538;6.108;2022-12-18T04:13:44;51.22;;;23.10;;
73650;SDS011;61944;52.538;6.108;2022-12-18T04:16:10;54.88;;;23.30;;
73650;SDS011;61944;52.538;6.108;2022-12-18T04:18:35;44.05;;;19.92;;
73650;SDS011;61944;52.538;6.108;2022-12-18T04:21:01;46.75;;;20.75;;
73650;SDS011;61944;52.538;6.108;2022-12-18T04:23:27;52.00;;;20.70;;
73650;SDS011;61944;52.538;6.108;2022-12-18T04:25:53;48.38;;;22.17;;
73650;SDS011;61944;52.538;6.108;2022-12-18T04:28:18;46.28;;;20.92;;
73650;SDS011;61944;52.538;6.108;2022-12-18T04:30:43;60.28;;;23.05;;
73650;SDS011;61944;52.538;6.108;2022-12-18T04:33:10;51.00;;;22.95;;
73650;SDS011;61944;52.538;6.108;2022-12-18T04:35:36;48.40;;;22.42;;
73650;SDS011;61944;52.538;6.108;2022-12-18T04:38:02;52.63;;;21.35;;
73650;SDS011;61944;52.538;6.108;2022-12-18T04:40:27;56.15;;;21.05;;
73650;SDS011;61944;52.538;6.108;2022-12-18T04:42:52;55.45;;;21.60;;
73650;SDS011;61944;52.538;6.108;2022-12-18T04:45:18;51.72;;;22.45;;
73650;SDS011;61944;52.538;6.108;2022-12-18T04:47:43;51.22;;;21.30;;
73650;SDS011;61944;52.538;6.108;2022-12-18T04:50:08;49.67;;;21.23;;
73650;SDS011;61944;52.538;6.108;2022-12-18T04:52:34;50.35;;;20.75;;
73650;SDS011;61944;52.538;6.108;2022-12-18T04:54:59;44.75;;;22.45;;
73650;SDS011;61944;52.538;6.108;2022-12-18T04:57:25;43.38;;;21.38;;
73650;SDS011;61944;52.538;6.108;2022-12-18T04:59:51;45.15;;;19.98;;
73650;SDS011;61944;52.538;6.108;2022-12-18T05:02:16;45.45;;;22.33;;
73650;SDS011;61944;52.538;6.108;2022-12-18T05:04:41;43.53;;;20.00;;
73650;SDS011;61944;52.538;6.108;2022-12-18T05:07:07;44.30;;;19.63;;
73650;SDS011;61944;52.538;6.108;2022-12-18T05:09:32;44.15;;;21.17;;
73650;SDS011;61944;52.538;6.108;2022-12-18T05:11:57;42.88;;;20.73;;
73650;SDS011;61944;52.538;6.108;2022-12-18T05:14:22;48.53;;;21.38;;
73650;SDS011;61944;52.538;6.108;2022-12-18T05:16:48;44.00;;;21.40;;
73650;SDS011;61944;52.538;6.108;2022-12-18T05:19:13;45.30;;;19.73;;
73650;SDS011;61944;52.538;6.108;2022-12-18T05:21:39;43.17;;;20.00;;
73650;SDS011;61944;52.538;6.108;2022-12-18T05:24:04;45.40;;;21.88;;
73650;SDS011;61944;52.538;6.108;2022-12-18T05:26:30;43.58;;;20.42;;
73650;SDS011;61944;52.538;6.108;2022-12-18T05:28:56;35.50;;;19.67;;
73650;SDS011;61944;52.538;6.108;2022-12-18T05:31:21;45.97;;;20.38;;
73650;SDS011;61944;52.538;6.108;2022-12-18T05:33:47;44.22;;;19.23;;
73650;SDS011;61944;52.538;6.108;2022-12-18T05:36:14;40.00;;;18.67;;
73650;SDS011;61944;52.538;6.108;2022-12-18T05:38:39;39.67;;;18.38;;
73650;SDS011;61944;52.538;6.108;2022-12-18T05:41:05;36.00;;;18.33;;
73650;SDS011;61944;52.538;6.108;2022-12-18T05:43:33;35.95;;;17.25;;
73650;SDS011;61944;52.538;6.108;2022-12-18T05:46:02;39.28;;;18.20;;
73650;SDS011;61944;52.538;6.108;2022-12-18T05:48:38;41.40;;;18.52;;
73650;SDS011;61944;52.538;6.108;2022-12-18T05:51:05;42.70;;;19.30;;
73650;SDS011;61944;52.538;6.108;2022-12-18T05:53:32;35.63;;;17.52;;
73650;SDS011;61944;52.538;6.108;2022-12-18T05:56:05;35.67;;;16.38;;
73650;SDS011;61944;52.538;6.108;2022-12-18T05:58:32;42.63;;;18.15;;
73650;SDS011;61944;52.538;6.108;2022-12-18T06:01:05;33.05;;;17.38;;
73650;SDS011;61944;52.538;6.108;2022-12-18T06:03:32;38.83;;;19.48;;
73650;SDS011;61944;52.538;6.108;2022-12-18T06:05:57;34.53;;;17.10;;
73650;SDS011;61944;52.538;6.108;2022-12-18T06:08:22;40.25;;;18.65;;
73650;SDS011;61944;52.538;6.108;2022-12-18T06:10:51;43.58;;;17.70;;
73650;SDS011;61944;52.538;6.108;2022-12-18T06:13:17;39.10;;;17.63;;
73650;SDS011;61944;52.538;6.108;2022-12-18T06:15:43;39.63;;;16.10;;
73650;SDS011;61944;52.538;6.108;2022-12-18T06:18:08;34.95;;;17.10;;
73650;SDS011;61944;52.538;6.108;2022-12-18T06:20:34;30.70;;;16.77;;
73650;SDS011;61944;52.538;6.108;2022-12-18T06:23:01;41.60;;;18.17;;
73650;SDS011;61944;52.538;6.108;2022-12-18T06:25:26;34.35;;;18.15;;
73650;SDS011;61944;52.538;6.108;2022-12-18T06:27:52;42.63;;;19.85;;
73650;SDS011;61944;52.538;6.108;2022-12-18T06:30:17;43.75;;;18.40;;
73650;SDS011;61944;52.538;6.108;2022-12-18T06:32:43;35.78;;;18.73;;
73650;SDS011;61944;52.538;6.108;2022-12-18T06:35:08;44.13;;;18.20;;
73650;SDS011;61944;52.538;6.108;2022-12-18T06:37:34;42.13;;;18.80;;
73650;SDS011;61944;52.538;6.108;2022-12-18T06:39:59;38.63;;;16.85;;
73650;SDS011;61944;52.538;6.108;2022-12-18T06:42:25;42.53;;;19.35;;
73650;SDS011;61944;52.538;6.108;2022-12-18T06:44:51;32.90;;;16.42;;
73650;SDS011;61944;52.538;6.108;2022-12-18T06:47:16;32.47;;;17.23;;
73650;SDS011;61944;52.538;6.108;2022-12-18T06:49:42;33.63;;;16.77;;
73650;SDS011;61944;52.538;6.108;2022-12-18T06:52:08;40.33;;;17.88;;
73650;SDS011;61944;52.538;6.108;2022-12-18T06:54:33;33.17;;;15.38;;
73650;SDS011;61944;52.538;6.108;2022-12-18T06:56:59;38.05;;;17.42;;
73650;SDS011;61944;52.538;6.108;2022-12-18T06:59:24;38.78;;;17.05;;
73650;SDS011;61944;52.538;6.108;2022-12-18T07:01:49;35.55;;;17.20;;
73650;SDS011;61944;52.538;6.108;2022-12-18T07:04:15;37.53;;;17.55;;
73650;SDS011;61944;52.538;6.108;2022-12-18T07:06:40;35.22;;;17.52;;
73650;SDS011;61944;52.538;6.108;2022-12-18T07:09:05;35.08;;;17.67;;
73650;SDS011;61944;52.538;6.108;2022-12-18T07:11:32;37.05;;;17.40;;
73650;SDS011;61944;52.538;6.108;2022-12-18T07:13:58;34.03;;;17.13;;
73650;SDS011;61944;52.538;6.108;2022-12-18T07:16:23;38.60;;;16.90;;
73650;SDS011;61944;52.538;6.108;2022-12-18T07:18:48;31.42;;;16.13;;
73650;SDS011;61944;52.538;6.108;2022-12-18T07:21:15;34.40;;;17.02;;
73650;SDS011;61944;52.538;6.108;2022-12-18T07:23:42;34.30;;;17.25;;
73650;SDS011;61944;52.538;6.108;2022-12-18T07:26:09;36.60;;;16.92;;
73650;SDS011;61944;52.538;6.108;2022-12-18T07:28:36;38.15;;;17.00;;
73650;SDS011;61944;52.538;6.108;2022-12-18T07:31:03;32.88;;;16.38;;
73650;SDS011;61944;52.538;6.108;2022-12-18T07:33:29;37.00;;;17.23;;
73650;SDS011;61944;52.538;6.108;2022-12-18T07:35:54;30.75;;;15.45;;
73650;SDS011;61944;52.538;6.108;2022-12-18T07:38:20;36.35;;;16.55;;
73650;SDS011;61944;52.538;6.108;2022-12-18T07:40:45;31.15;;;16.33;;
73650;SDS011;61944;52.538;6.108;2022-12-18T07:43:10;33.92;;;16.45;;
73650;SDS011;61944;52.538;6.108;2022-12-18T07:45:36;27.92;;;14.77;;
73650;SDS011;61944;52.538;6.108;2022-12-18T07:48:01;32.08;;;16.88;;
73650;SDS011;61944;52.538;6.108;2022-12-18T07:50:26;38.40;;;16.10;;
73650;SDS011;61944;52.538;6.108;2022-12-18T07:52:52;31.83;;;16.55;;
73650;SDS011;61944;52.538;6.108;2022-12-18T07:55:17;37.50;;;16.80;;
73650;SDS011;61944;52.538;6.108;2022-12-18T07:57:42;27.55;;;15.68;;
73650;SDS011;61944;52.538;6.108;2022-12-18T08:00:08;31.45;;;15.98;;
73650;SDS011;61944;52.538;6.108;2022-12-18T08:02:34;31.98;;;15.48;;
73650;SDS011;61944;52.538;6.108;2022-12-18T08:04:59;30.08;;;15.45;;
73650;SDS011;61944;52.538;6.108;2022-12-18T08:07:24;29.38;;;15.52;;
73650;SDS011;61944;52.538;6.108;2022-12-18T08:09:50;31.42;;;16.13;;
73650;SDS011;61944;52.538;6.108;2022-12-18T08:12:15;35.55;;;17.00;;
73650;SDS011;61944;52.538;6.108;2022-12-18T08:14:40;31.25;;;15.23;;
73650;SDS011;61944;52.538;6.108;2022-12-18T08:17:05;28.17;;;14.48;;
73650;SDS011;61944;52.538;6.108;2022-12-18T08:19:31;32.45;;;15.48;;
73650;SDS011;61944;52.538;6.108;2022-12-18T08:21:56;31.30;;;14.77;;
73650;SDS011;61944;52.538;6.108;2022-12-18T08:24:21;30.15;;;15.98;;
73650;SDS011;61944;52.538;6.108;2022-12-18T08:26:47;32.15;;;15.13;;
73650;SDS011;61944;52.538;6.108;2022-12-18T08:29:13;31.70;;;15.10;;
73650;SDS011;61944;52.538;6.108;2022-12-18T08:31:38;31.33;;;15.10;;
73650;SDS011;61944;52.538;6.108;2022-12-18T08:34:03;31.02;;;14.95;;
73650;SDS011;61944;52.538;6.108;2022-12-18T08:36:29;27.80;;;14.10;;
73650;SDS011;61944;52.538;6.108;2022-12-18T08:38:54;28.30;;;14.63;;
73650;SDS011;61944;52.538;6.108;2022-12-18T08:41:20;29.38;;;14.95;;
73650;SDS011;61944;52.538;6.108;2022-12-18T08:43:45;24.90;;;13.55;;
73650;SDS011;61944;52.538;6.108;2022-12-18T08:46:32;28.13;;;13.93;;
73650;SDS011;61944;52.538;6.108;2022-12-18T08:49:00;28.92;;;14.80;;
73650;SDS011;61944;52.538;6.108;2022-12-18T08:51:25;29.83;;;15.52;;
73650;SDS011;61944;52.538;6.108;2022-12-18T08:53:50;25.85;;;14.05;;
73650;SDS011;61944;52.538;6.108;2022-12-18T08:56:16;29.70;;;14.48;;
73650;SDS011;61944;52.538;6.108;2022-12-18T08:58:41;32.20;;;14.75;;
73650;SDS011;61944;52.538;6.108;2022-12-18T09:01:08;27.92;;;16.63;;
73650;SDS011;61944;52.538;6.108;2022-12-18T09:03:35;32.90;;;15.55;;
73650;SDS011;61944;52.538;6.108;2022-12-18T09:06:00;31.65;;;15.75;;
73650;SDS011;61944;52.538;6.108;2022-12-18T09:08:26;27.60;;;13.85;;
73650;SDS011;61944;52.538;6.108;2022-12-18T09:10:52;32.20;;;15.73;;
73650;SDS011;61944;52.538;6.108;2022-12-18T09:13:18;26.40;;;14.13;;
73650;SDS011;61944;52.538;6.108;2022-12-18T09:15:44;27.88;;;14.25;;
73650;SDS011;61944;52.538;6.108;2022-12-18T09:18:12;23.80;;;12.95;;
73650;SDS011;61944;52.538;6.108;2022-12-18T09:20:39;30.42;;;14.65;;
73650;SDS011;61944;52.538;6.108;2022-12-18T09:23:05;25.73;;;13.68;;
73650;SDS011;61944;52.538;6.108;2022-12-18T09:25:31;24.63;;;13.15;;
73650;SDS011;61944;52.538;6.108;2022-12-18T09:27:58;27.65;;;12.43;;
73650;SDS011;61944;52.538;6.108;2022-12-18T09:30:24;24.67;;;12.38;;
73650;SDS011;61944;52.538;6.108;2022-12-18T09:32:50;23.77;;;12.43;;
73650;SDS011;61944;52.538;6.108;2022-12-18T09:35:15;19.02;;;12.10;;
73650;SDS011;61944;52.538;6.108;2022-12-18T09:37:40;23.00;;;11.98;;
73650;SDS011;61944;52.538;6.108;2022-12-18T09:40:12;25.00;;;12.77;;
73650;SDS011;61944;52.538;6.108;2022-12-18T09:42:39;28.67;;;13.73;;
73650;SDS011;61944;52.538;6.108;2022-12-18T09:45:07;18.17;;;10.52;;
73650;SDS011;61944;52.538;6.108;2022-12-18T09:47:39;23.02;;;12.38;;
73650;SDS011;61944;52.538;6.108;2022-12-18T09:50:21;24.33;;;11.55;;
73650;SDS011;61944;52.538;6.108;2022-12-18T09:52:53;21.10;;;10.98;;
73650;SDS011;61944;52.538;6.108;2022-12-18T09:55:25;18.13;;;10.68;;
73650;SDS011;61944;52.538;6.108;2022-12-18T09:57:57;20.85;;;10.15;;
73650;SDS011;61944;52.538;6.108;2022-12-18T10:00:27;17.92;;;10.88;;
73650;SDS011;61944;52.538;6.108;2022-12-18T10:02:53;22.42;;;10.98;;
73650;SDS011;61944;52.538;6.108;2022-12-18T10:08:05;17.05;;;10.63;;
73650;SDS011;61944;52.538;6.108;2022-12-18T10:10:50;19.17;;;11.23;;
73650;SDS011;61944;52.538;6.108;2022-12-18T10:13:26;14.88;;;9.73;;
73650;SDS011;61944;52.538;6.108;2022-12-18T10:16:13;23.33;;;11.07;;
73650;SDS011;61944;52.538;6.108;2022-12-18T10:18:54;17.33;;;9.82;;
73650;SDS011;61944;52.538;6.108;2022-12-18T10:21:22;24.45;;;11.23;;
73650;SDS011;61944;52.538;6.108;2022-12-18T10:24:38;23.73;;;10.55;;
73650;SDS011;61944;52.538;6.108;2022-12-18T10:26:43;20.30;;;11.85;;
73650;SDS011;61944;52.538;6.108;2022-12-18T10:29:10;21.48;;;10.70;;
73650;SDS011;61944;52.538;6.108;2022-12-18T10:31:37;20.83;;;11.60;;
73650;SDS011;61944;52.538;6.108;2022-12-18T10:34:07;28.13;;;14.00;;
73650;SDS011;61944;52.538;6.108;2022-12-18T10:36:41;18.02;;;10.07;;
73650;SDS011;61944;52.538;6.108;2022-12-18T10:39:14;19.02;;;11.13;;
73650;SDS011;61944;52.538;6.108;2022-12-18T10:41:45;19.75;;;9.43;;
73650;SDS011;61944;52.538;6.108;2022-12-18T10:44:21;18.73;;;10.57;;
73650;SDS011;61944;52.538;6.108;2022-12-18T10:46:48;19.63;;;11.13;;
73650;SDS011;61944;52.538;6.108;2022-12-18T10:49:23;19.35;;;11.35;;
73650;SDS011;61944;52.538;6.108;2022-12-18T10:51:51;20.50;;;10.80;;
73650;SDS011;61944;52.538;6.108;2022-12-18T10:54:50;16.75;;;9.25;;
73650;SDS011;61944;52.538;6.108;2022-12-18T10:57:32;16.88;;;10.13;;
73650;SDS011;61944;52.538;6.108;2022-12-18T11:02:49;14.85;;;9.40;;
73650;SDS011;61944;52.538;6.108;2022-12-18T11:05:36;25.48;;;10.57;;
73650;SDS011;61944;52.538;6.108;2022-12-18T11:08:01;14.32;;;8.77;;
73650;SDS011;61944;52.538;6.108;2022-12-18T11:10:35;16.38;;;8.75;;
73650;SDS011;61944;52.538;6.108;2022-12-18T11:13:36;16.30;;;9.25;;
73650;SDS011;61944;52.538;6.108;2022-12-18T11:15:56;14.48;;;8.40;;
73650;SDS011;61944;52.538;6.108;2022-12-18T11:18:25;15.95;;;9.13;;
73650;SDS011;61944;52.538;6.108;2022-12-18T11:20:54;18.38;;;9.90;;
73650;SDS011;61944;52.538;6.108;2022-12-18T11:23:22;19.10;;;10.80;;
73650;SDS011;61944;52.538;6.108;2022-12-18T11:25:58;18.08;;;9.57;;
73650;SDS011;61944;52.538;6.108;2022-12-18T11:28:43;16.52;;;9.30;;
73650;SDS011;61944;52.538;6.108;2022-12-18T11:33:42;19.02;;;10.60;;
73650;SDS011;61944;52.538;6.108;2022-12-18T11:36:31;14.98;;;9.48;;
73650;SDS011;61944;52.538;6.108;2022-12-18T11:39:04;15.25;;;9.23;;
73650;SDS011;61944;52.538;6.108;2022-12-18T11:41:47;16.38;;;9.15;;
73650;SDS011;61944;52.538;6.108;2022-12-18T11:44:49;16.45;;;9.23;;
73650;SDS011;61944;52.538;6.108;2022-12-18T11:50:14;12.57;;;7.75;;
73650;SDS011;61944;52.538;6.108;2022-12-18T11:52:43;14.95;;;8.63;;
73650;SDS011;61944;52.538;6.108;2022-12-18T11:55:16;17.45;;;10.25;;
73650;SDS011;61944;52.538;6.108;2022-12-18T12:04:02;21.02;;;8.65;;
73650;SDS011;61944;52.538;6.108;2022-12-18T12:06:49;12.07;;;7.50;;
73650;SDS011;61944;52.538;6.108;2022-12-18T12:09:23;12.98;;;7.80;;
73650;SDS011;61944;52.538;6.108;2022-12-18T12:17:27;17.08;;;8.10;;
73650;SDS011;61944;52.538;6.108;2022-12-18T12:26:11;15.63;;;7.72;;
73650;SDS011;61944;52.538;6.108;2022-12-18T12:28:59;13.93;;;8.55;;
73650;SDS011;61944;52.538;6.108;2022-12-18T12:34:34;15.25;;;7.55;;
73650;SDS011;61944;52.538;6.108;2022-12-18T12:37:44;13.63;;;8.52;;
73650;SDS011;61944;52.538;6.108;2022-12-18T12:40:31;13.88;;;7.90;;
73650;SDS011;61944;52.538;6.108;2022-12-18T12:43:16;16.20;;;7.38;;
73650;SDS011;61944;52.538;6.108;2022-12-18T12:45:58;14.60;;;7.05;;
73650;SDS011;61944;52.538;6.108;2022-12-18T12:48:33;13.43;;;8.20;;
73650;SDS011;61944;52.538;6.108;2022-12-18T12:51:02;10.77;;;6.90;;
73650;SDS011;61944;52.538;6.108;2022-12-18T12:53:34;13.70;;;8.82;;
73650;SDS011;61944;52.538;6.108;2022-12-18T12:56:02;13.13;;;7.38;;
73650;SDS011;61944;52.538;6.108;2022-12-18T12:58:36;15.10;;;7.72;;
73650;SDS011;61944;52.538;6.108;2022-12-18T13:01:20;11.35;;;6.85;;
73650;SDS011;61944;52.538;6.108;2022-12-18T13:04:02;14.10;;;7.97;;
73650;SDS011;61944;52.538;6.108;2022-12-18T13:06:37;11.07;;;7.07;;
73650;SDS011;61944;52.538;6.108;2022-12-18T13:09:10;13.75;;;7.60;;
73650;SDS011;61944;52.538;6.108;2022-12-18T13:11:37;15.55;;;8.43;;
73650;SDS011;61944;52.538;6.108;2022-12-18T13:14:27;14.50;;;8.35;;
73650;SDS011;61944;52.538;6.108;2022-12-18T13:19:48;9.93;;;7.50;;
73650;SDS011;61944;52.538;6.108;2022-12-18T13:24:47;13.05;;;6.97;;
73650;SDS011;61944;52.538;6.108;2022-12-18T13:30:41;14.18;;;7.63;;
73650;SDS011;61944;52.538;6.108;2022-12-18T13:38:33;14.25;;;8.38;;
73650;SDS011;61944;52.538;6.108;2022-12-18T13:43:25;10.68;;;8.05;;
73650;SDS011;61944;52.538;6.108;2022-12-18T13:48:25;15.32;;;8.18;;
73650;SDS011;61944;52.538;6.108;2022-12-18T13:50:53;17.80;;;7.30;;
73650;SDS011;61944;52.538;6.108;2022-12-18T13:53:25;13.48;;;8.15;;
73650;SDS011;61944;52.538;6.108;2022-12-18T13:55:53;15.40;;;8.25;;
73650;SDS011;61944;52.538;6.108;2022-12-18T13:58:20;12.15;;;8.30;;
73650;SDS011;61944;52.538;6.108;2022-12-18T14:00:45;12.10;;;6.75;;
73650;SDS011;61944;52.538;6.108;2022-12-18T14:03:24;12.38;;;7.72;;
73650;SDS011;61944;52.538;6.108;2022-12-18T14:05:52;14.10;;;8.25;;
73650;SDS011;61944;52.538;6.108;2022-12-18T14:08:20;17.35;;;8.48;;
73650;SDS011;61944;52.538;6.108;2022-12-18T14:10:47;18.17;;;10.43;;
73650;SDS011;61944;52.538;6.108;2022-12-18T14:13:16;13.15;;;7.53;;
73650;SDS011;61944;52.538;6.108;2022-12-18T14:15:46;14.80;;;7.78;;
73650;SDS011;61944;52.538;6.108;2022-12-18T14:21:17;14.50;;;7.75;;
73650;SDS011;61944;52.538;6.108;2022-12-18T14:23:45;10.45;;;6.68;;
73650;SDS011;61944;52.538;6.108;2022-12-18T14:26:27;12.05;;;6.85;;
73650;SDS011;61944;52.538;6.108;2022-12-18T14:28:58;13.07;;;7.60;;
73650;SDS011;61944;52.538;6.108;2022-12-18T14:31:27;12.13;;;7.55;;
73650;SDS011;61944;52.538;6.108;2022-12-18T14:33:54;10.90;;;7.07;;
73650;SDS011;61944;52.538;6.108;2022-12-18T14:36:21;12.00;;;7.55;;
73650;SDS011;61944;52.538;6.108;2022-12-18T14:38:58;10.85;;;7.47;;
73650;SDS011;61944;52.538;6.108;2022-12-18T14:41:24;15.43;;;7.68;;
73650;SDS011;61944;52.538;6.108;2022-12-18T14:43:51;14.32;;;8.38;;
73650;SDS011;61944;52.538;6.108;2022-12-18T14:46:25;14.52;;;7.97;;
73650;SDS011;61944;52.538;6.108;2022-12-18T14:49:02;14.90;;;8.30;;
73650;SDS011;61944;52.538;6.108;2022-12-18T14:51:30;11.63;;;7.30;;
73650;SDS011;61944;52.538;6.108;2022-12-18T14:54:05;13.98;;;8.30;;
73650;SDS011;61944;52.538;6.108;2022-12-18T14:56:44;11.90;;;7.00;;
73650;SDS011;61944;52.538;6.108;2022-12-18T14:59:15;12.45;;;7.93;;
73650;SDS011;61944;52.538;6.108;2022-12-18T15:01:45;14.32;;;7.60;;
73650;SDS011;61944;52.538;6.108;2022-12-18T15:04:27;12.90;;;7.22;;
73650;SDS011;61944;52.538;6.108;2022-12-18T15:07:09;15.30;;;7.65;;
73650;SDS011;61944;52.538;6.108;2022-12-18T15:09:35;10.32;;;7.38;;
73650;SDS011;61944;52.538;6.108;2022-12-18T15:12:01;14.38;;;8.20;;
73650;SDS011;61944;52.538;6.108;2022-12-18T15:14:31;13.75;;;7.32;;
73650;SDS011;61944;52.538;6.108;2022-12-18T15:17:03;12.20;;;7.82;;
73650;SDS011;61944;52.538;6.108;2022-12-18T15:19:34;15.60;;;7.85;;
73650;SDS011;61944;52.538;6.108;2022-12-18T15:22:03;13.80;;;9.10;;
73650;SDS011;61944;52.538;6.108;2022-12-18T15:24:30;14.90;;;7.45;;
73650;SDS011;61944;52.538;6.108;2022-12-18T15:26:57;12.45;;;7.75;;
73650;SDS011;61944;52.538;6.108;2022-12-18T15:29:23;17.90;;;9.30;;
73650;SDS011;61944;52.538;6.108;2022-12-18T15:32:00;12.00;;;7.60;;
73650;SDS011;61944;52.538;6.108;2022-12-18T15:34:28;10.80;;;8.32;;
73650;SDS011;61944;52.538;6.108;2022-12-18T15:36:54;14.65;;;8.65;;
73650;SDS011;61944;52.538;6.108;2022-12-18T15:39:19;11.82;;;8.85;;
73650;SDS011;61944;52.538;6.108;2022-12-18T15:41:45;14.45;;;9.10;;
73650;SDS011;61944;52.538;6.108;2022-12-18T15:44:29;13.00;;;6.75;;
73650;SDS011;61944;52.538;6.108;2022-12-18T15:46:55;12.07;;;7.80;;
73650;SDS011;61944;52.538;6.108;2022-12-18T15:49:20;18.73;;;8.70;;
73650;SDS011;61944;52.538;6.108;2022-12-18T15:51:46;13.43;;;8.05;;
73650;SDS011;61944;52.538;6.108;2022-12-18T15:54:21;12.77;;;7.65;;
73650;SDS011;61944;52.538;6.108;2022-12-18T15:57:10;11.90;;;7.53;;
73650;SDS011;61944;52.538;6.108;2022-12-18T15:59:49;11.35;;;7.47;;
73650;SDS011;61944;52.538;6.108;2022-12-18T16:02:19;11.57;;;6.55;;